sensor_id;sensor_type;location;lat;lon;timestamp;pressure;altitude;pressure_sealevel;temperature;humidity
45275;BME280;31019;43.780;25.948;2023-04-15T00:01:37;100288.03;;;11.91;100.00
45275;BME280;31019;43.780;25.948;2023-04-15T00:04:06;100291.28;;;11.93;100.00
45275;BME280;31019;43.780;25.948;2023-04-15T00:06:35;100290.47;;;11.93;100.00
45275;BME280;31019;43.780;25.948;2023-04-15T00:09:02;100283.06;;;11.95;100.00
45275;BME280;31019;43.780;25.948;2023-04-15T00:11:29;100283.22;;;12.00;100.00
45275;BME280;31019;43.780;25.948;2023-04-15T00:13:56;100279.16;;;11.97;100.00
45275;BME280;31019;43.780;25.948;2023-04-15T00:16:24;100258.75;;;11.91;100.00
45275;BME280;31019;43.780;25.948;2023-04-15T00:18:53;100262.97;;;11.99;100.00
45275;BME280;31019;43.780;25.948;2023-04-15T00:21:22;100267.13;;;12.06;100.00
45275;BME280;31019;43.780;25.948;2023-04-15T00:23:49;100270.50;;;12.02;100.00
45275;BME280;31019;43.780;25.948;2023-04-15T00:26:18;100271.44;;;12.07;100.00
45275;BME280;31019;43.780;25.948;2023-04-15T00:28:45;100277.56;;;12.08;100.00
45275;BME280;31019;43.780;25.948;2023-04-15T00:31:12;100277.78;;;12.06;100.00
45275;BME280;31019;43.780;25.948;2023-04-15T00:33:39;100280.91;;;12.03;100.00
45275;BME280;31019;43.780;25.948;2023-04-15T00:36:06;100287.03;;;12.04;100.00
45275;BME280;31019;43.780;25.948;2023-04-15T00:38:37;100289.13;;;12.02;100.00
45275;BME280;31019;43.780;25.948;2023-04-15T00:41:04;100276.63;;;12.02;100.00
45275;BME280;31019;43.780;25.948;2023-04-15T00:43:30;100288.97;;;11.97;100.00
45275;BME280;31019;43.780;25.948;2023-04-15T00:45:58;100279.28;;;12.02;100.00
45275;BME280;31019;43.780;25.948;2023-04-15T00:48:27;100281.22;;;11.95;100.00
45275;BME280;31019;43.780;25.948;2023-04-15T00:50:54;100286.97;;;11.92;100.00
45275;BME280;31019;43.780;25.948;2023-04-15T00:53:21;100280.75;;;11.86;100.00
45275;BME280;31019;43.780;25.948;2023-04-15T00:55:49;100282.94;;;11.89;100.00
45275;BME280;31019;43.780;25.948;2023-04-15T00:58:17;100286.19;;;11.91;100.00
45275;BME280;31019;43.780;25.948;2023-04-15T01:00:44;100282.72;;;11.91;100.00
45275;BME280;31019;43.780;25.948;2023-04-15T01:03:12;100270.22;;;11.91;100.00
45275;BME280;31019;43.780;25.948;2023-04-15T01:05:39;100268.88;;;11.82;100.00
45275;BME280;31019;43.780;25.948;2023-04-15T01:08:06;100266.53;;;11.93;100.00
45275;BME280;31019;43.780;25.948;2023-04-15T01:10:34;100260.97;;;11.94;100.00
45275;BME280;31019;43.780;25.948;2023-04-15T01:13:03;100277.88;;;12.00;100.00
45275;BME280;31019;43.780;25.948;2023-04-15T01:15:30;100275.41;;;11.86;100.00
45275;BME280;31019;43.780;25.948;2023-04-15T01:17:57;100286.69;;;12.00;100.00
45275;BME280;31019;43.780;25.948;2023-04-15T01:20:28;100300.31;;;11.55;100.00
45275;BME280;31019;43.780;25.948;2023-04-15T01:22:58;100307.41;;;11.43;100.00
45275;BME280;31019;43.780;25.948;2023-04-15T01:25:30;100318.47;;;11.58;100.00
45275;BME280;31019;43.780;25.948;2023-04-15T01:27:57;100315.97;;;11.63;100.00
45275;BME280;31019;43.780;25.948;2023-04-15T01:30:25;100320.25;;;11.64;100.00
45275;BME280;31019;43.780;25.948;2023-04-15T01:32:55;100320.25;;;11.64;100.00
45275;BME280;31019;43.780;25.948;2023-04-15T01:35:22;100320.16;;;11.53;100.00
45275;BME280;31019;43.780;25.948;2023-04-15T01:37:49;100326.44;;;11.40;100.00
45275;BME280;31019;43.780;25.948;2023-04-15T01:40:16;100323.22;;;11.38;100.00
45275;BME280;31019;43.780;25.948;2023-04-15T01:42:44;100327.19;;;11.29;100.00
45275;BME280;31019;43.780;25.948;2023-04-15T01:45:11;100327.53;;;11.14;100.00
45275;BME280;31019;43.780;25.948;2023-04-15T01:47:38;100318.44;;;11.03;100.00
45275;BME280;31019;43.780;25.948;2023-04-15T01:50:06;100334.88;;;11.55;100.00
45275;BME280;31019;43.780;25.948;2023-04-15T01:52:33;100335.22;;;11.22;100.00
45275;BME280;31019;43.780;25.948;2023-04-15T01:55:00;100346.19;;;11.07;100.00
45275;BME280;31019;43.780;25.948;2023-04-15T01:57:27;100331.47;;;10.86;100.00
45275;BME280;31019;43.780;25.948;2023-04-15T01:59:56;100325.75;;;10.58;100.00
45275;BME280;31019;43.780;25.948;2023-04-15T02:02:23;100326.19;;;10.80;100.00
45275;BME280;31019;43.780;25.948;2023-04-15T02:04:50;100317.63;;;10.77;100.00
45275;BME280;31019;43.780;25.948;2023-04-15T02:07:17;100311.22;;;10.85;100.00
45275;BME280;31019;43.780;25.948;2023-04-15T02:09:45;100300.22;;;10.82;100.00
45275;BME280;31019;43.780;25.948;2023-04-15T02:12:12;100296.66;;;10.69;100.00
45275;BME280;31019;43.780;25.948;2023-04-15T02:14:38;100294.78;;;10.45;100.00
45275;BME280;31019;43.780;25.948;2023-04-15T02:17:07;100300.09;;;10.45;100.00
45275;BME280;31019;43.780;25.948;2023-04-15T02:19:34;100327.22;;;10.53;100.00
45275;BME280;31019;43.780;25.948;2023-04-15T02:22:01;100326.13;;;10.29;100.00
45275;BME280;31019;43.780;25.948;2023-04-15T02:24:29;100325.72;;;10.32;100.00
45275;BME280;31019;43.780;25.948;2023-04-15T02:26:56;100340.41;;;10.35;100.00
45275;BME280;31019;43.780;25.948;2023-04-15T02:29:23;100343.47;;;10.25;100.00
45275;BME280;31019;43.780;25.948;2023-04-15T02:31:50;100351.47;;;10.19;100.00
45275;BME280;31019;43.780;25.948;2023-04-15T02:34:18;100352.94;;;10.15;100.00
45275;BME280;31019;43.780;25.948;2023-04-15T02:36:45;100342.69;;;10.18;100.00
45275;BME280;31019;43.780;25.948;2023-04-15T02:39:13;100332.88;;;10.19;100.00
45275;BME280;31019;43.780;25.948;2023-04-15T02:41:41;100318.25;;;10.09;100.00
45275;BME280;31019;43.780;25.948;2023-04-15T02:44:08;100274.25;;;9.89;100.00
45275;BME280;31019;43.780;25.948;2023-04-15T02:46:37;100277.03;;;9.62;100.00
45275;BME280;31019;43.780;25.948;2023-04-15T02:49:05;100309.34;;;9.39;100.00
45275;BME280;31019;43.780;25.948;2023-04-15T02:51:34;100321.91;;;9.63;100.00
45275;BME280;31019;43.780;25.948;2023-04-15T02:54:01;100339.25;;;9.53;100.00
45275;BME280;31019;43.780;25.948;2023-04-15T02:56:28;100346.66;;;9.24;100.00
45275;BME280;31019;43.780;25.948;2023-04-15T02:58:58;100354.38;;;9.46;100.00
45275;BME280;31019;43.780;25.948;2023-04-15T03:01:28;100356.22;;;9.45;100.00
45275;BME280;31019;43.780;25.948;2023-04-15T03:03:54;100353.34;;;9.53;100.00
45275;BME280;31019;43.780;25.948;2023-04-15T03:06:21;100344.56;;;9.59;100.00
45275;BME280;31019;43.780;25.948;2023-04-15T03:08:50;100346.81;;;9.56;100.00
45275;BME280;31019;43.780;25.948;2023-04-15T03:11:18;100331.34;;;9.39;100.00
45275;BME280;31019;43.780;25.948;2023-04-15T03:13:45;100328.31;;;9.36;100.00
45275;BME280;31019;43.780;25.948;2023-04-15T03:16:12;100337.69;;;8.59;100.00
45275;BME280;31019;43.780;25.948;2023-04-15T03:18:39;100356.22;;;8.39;100.00
45275;BME280;31019;43.780;25.948;2023-04-15T03:21:06;100360.88;;;8.50;100.00
45275;BME280;31019;43.780;25.948;2023-04-15T03:23:33;100377.22;;;8.60;100.00
45275;BME280;31019;43.780;25.948;2023-04-15T03:26:02;100390.47;;;8.67;100.00
45275;BME280;31019;43.780;25.948;2023-04-15T03:28:29;100403.63;;;8.47;100.00
45275;BME280;31019;43.780;25.948;2023-04-15T03:30:57;100409.00;;;8.80;100.00
45275;BME280;31019;43.780;25.948;2023-04-15T03:33:24;100413.31;;;8.88;100.00
45275;BME280;31019;43.780;25.948;2023-04-15T03:35:53;100398.84;;;8.97;100.00
45275;BME280;31019;43.780;25.948;2023-04-15T03:38:21;100400.06;;;8.94;100.00
45275;BME280;31019;43.780;25.948;2023-04-15T03:40:48;100407.81;;;8.96;100.00
45275;BME280;31019;43.780;25.948;2023-04-15T03:43:16;100410.25;;;9.04;100.00
45275;BME280;31019;43.780;25.948;2023-04-15T03:45:43;100404.16;;;8.97;100.00
45275;BME280;31019;43.780;25.948;2023-04-15T03:48:10;100402.09;;;8.86;100.00
45275;BME280;31019;43.780;25.948;2023-04-15T03:50:37;100409.84;;;8.87;100.00
45275;BME280;31019;43.780;25.948;2023-04-15T03:53:04;100404.09;;;8.64;100.00
45275;BME280;31019;43.780;25.948;2023-04-15T03:55:30;100403.13;;;8.78;100.00
45275;BME280;31019;43.780;25.948;2023-04-15T03:57:57;100400.84;;;8.62;100.00
45275;BME280;31019;43.780;25.948;2023-04-15T04:00:26;100390.50;;;8.87;100.00
45275;BME280;31019;43.780;25.948;2023-04-15T04:02:53;100399.25;;;9.07;100.00
45275;BME280;31019;43.780;25.948;2023-04-15T04:05:19;100396.00;;;9.12;100.00
45275;BME280;31019;43.780;25.948;2023-04-15T04:07:46;100400.47;;;9.25;100.00
45275;BME280;31019;43.780;25.948;2023-04-15T04:10:13;100404.34;;;9.29;100.00
45275;BME280;31019;43.780;25.948;2023-04-15T04:12:40;100397.84;;;9.18;100.00
45275;BME280;31019;43.780;25.948;2023-04-15T04:15:07;100398.63;;;9.32;100.00
45275;BME280;31019;43.780;25.948;2023-04-15T04:17:35;100386.00;;;8.87;100.00
45275;BME280;31019;43.780;25.948;2023-04-15T04:20:03;100390.09;;;9.10;100.00
45275;BME280;31019;43.780;25.948;2023-04-15T04:22:30;100391.69;;;9.37;100.00
45275;BME280;31019;43.780;25.948;2023-04-15T04:24:57;100395.59;;;9.35;100.00
45275;BME280;31019;43.780;25.948;2023-04-15T04:27:24;100396.00;;;9.12;100.00
45275;BME280;31019;43.780;25.948;2023-04-15T04:29:51;100412.91;;;8.91;100.00
45275;BME280;31019;43.780;25.948;2023-04-15T04:32:18;100417.22;;;8.99;100.00
45275;BME280;31019;43.780;25.948;2023-04-15T04:34:46;100420.06;;;9.24;100.00
45275;BME280;31019;43.780;25.948;2023-04-15T04:37:13;100433.72;;;9.34;100.00
45275;BME280;31019;43.780;25.948;2023-04-15T04:39:40;100423.69;;;9.49;100.00
45275;BME280;31019;43.780;25.948;2023-04-15T04:42:07;100442.69;;;9.59;100.00
45275;BME280;31019;43.780;25.948;2023-04-15T04:44:34;100443.28;;;9.61;100.00
45275;BME280;31019;43.780;25.948;2023-04-15T04:47:01;100446.75;;;9.55;100.00
45275;BME280;31019;43.780;25.948;2023-04-15T04:49:28;100451.22;;;9.68;100.00
45275;BME280;31019;43.780;25.948;2023-04-15T04:51:56;100452.25;;;9.67;100.00
45275;BME280;31019;43.780;25.948;2023-04-15T04:54:23;100452.44;;;9.79;100.00
45275;BME280;31019;43.780;25.948;2023-04-15T04:56:52;100442.84;;;9.71;100.00
45275;BME280;31019;43.780;25.948;2023-04-15T04:59:18;100445.13;;;9.54;100.00
45275;BME280;31019;43.780;25.948;2023-04-15T05:01:45;100460.19;;;9.74;100.00
45275;BME280;31019;43.780;25.948;2023-04-15T05:04:12;100465.91;;;9.71;100.00
45275;BME280;31019;43.780;25.948;2023-04-15T05:06:39;100468.38;;;9.52;100.00
45275;BME280;31019;43.780;25.948;2023-04-15T05:09:07;100470.75;;;10.00;100.00
45275;BME280;31019;43.780;25.948;2023-04-15T05:11:34;100461.16;;;10.06;100.00
45275;BME280;31019;43.780;25.948;2023-04-15T05:14:01;100458.75;;;9.84;100.00
45275;BME280;31019;43.780;25.948;2023-04-15T05:16:28;100473.25;;;9.75;100.00
45275;BME280;31019;43.780;25.948;2023-04-15T05:18:57;100480.59;;;9.86;100.00
45275;BME280;31019;43.780;25.948;2023-04-15T05:21:24;100479.31;;;10.02;100.00
45275;BME280;31019;43.780;25.948;2023-04-15T05:23:52;100485.19;;;10.24;100.00
45275;BME280;31019;43.780;25.948;2023-04-15T05:26:20;100482.56;;;10.69;100.00
45275;BME280;31019;43.780;25.948;2023-04-15T05:28:48;100486.00;;;10.76;100.00
45275;BME280;31019;43.780;25.948;2023-04-15T05:31:15;100494.78;;;10.77;100.00
45275;BME280;31019;43.780;25.948;2023-04-15T05:33:42;100495.25;;;10.67;100.00
45275;BME280;31019;43.780;25.948;2023-04-15T05:36:09;100498.78;;;10.54;100.00
45275;BME280;31019;43.780;25.948;2023-04-15T05:38:36;100492.78;;;10.72;100.00
45275;BME280;31019;43.780;25.948;2023-04-15T05:41:03;100483.53;;;10.82;100.00
45275;BME280;31019;43.780;25.948;2023-04-15T05:43:31;100479.69;;;11.09;100.00
45275;BME280;31019;43.780;25.948;2023-04-15T05:45:58;100495.16;;;11.19;100.00
45275;BME280;31019;43.780;25.948;2023-04-15T05:48:28;100487.25;;;11.37;100.00
45275;BME280;31019;43.780;25.948;2023-04-15T05:50:54;100480.41;;;11.48;100.00
45275;BME280;31019;43.780;25.948;2023-04-15T05:53:21;100488.50;;;11.60;100.00
45275;BME280;31019;43.780;25.948;2023-04-15T05:55:48;100496.16;;;11.75;100.00
45275;BME280;31019;43.780;25.948;2023-04-15T05:58:15;100488.44;;;11.66;100.00
45275;BME280;31019;43.780;25.948;2023-04-15T06:00:43;100491.16;;;11.85;100.00
45275;BME280;31019;43.780;25.948;2023-04-15T06:03:10;100484.53;;;12.12;100.00
45275;BME280;31019;43.780;25.948;2023-04-15T06:05:37;100491.88;;;12.35;100.00
45275;BME280;31019;43.780;25.948;2023-04-15T06:08:05;100489.84;;;12.49;100.00
45275;BME280;31019;43.780;25.948;2023-04-15T06:10:34;100489.56;;;12.39;100.00
45275;BME280;31019;43.780;25.948;2023-04-15T06:13:00;100489.66;;;12.32;100.00
45275;BME280;31019;43.780;25.948;2023-04-15T06:15:28;100490.00;;;12.54;100.00
45275;BME280;31019;43.780;25.948;2023-04-15T06:17:56;100494.25;;;12.55;100.00
45275;BME280;31019;43.780;25.948;2023-04-15T06:20:23;100495.63;;;12.76;100.00
45275;BME280;31019;43.780;25.948;2023-04-15T06:22:50;100487.59;;;12.83;100.00
45275;BME280;31019;43.780;25.948;2023-04-15T06:25:17;100486.97;;;13.11;100.00
45275;BME280;31019;43.780;25.948;2023-04-15T06:27:44;100497.06;;;13.21;100.00
45275;BME280;31019;43.780;25.948;2023-04-15T06:30:11;100494.84;;;13.48;100.00
45275;BME280;31019;43.780;25.948;2023-04-15T06:32:37;100492.63;;;13.57;100.00
45275;BME280;31019;43.780;25.948;2023-04-15T06:35:06;100498.00;;;13.68;100.00
45275;BME280;31019;43.780;25.948;2023-04-15T06:37:33;100491.13;;;13.72;100.00
45275;BME280;31019;43.780;25.948;2023-04-15T06:40:00;100498.78;;;13.69;100.00
45275;BME280;31019;43.780;25.948;2023-04-15T06:42:29;100499.72;;;13.86;100.00
45275;BME280;31019;43.780;25.948;2023-04-15T06:44:56;100500.41;;;14.05;100.00
45275;BME280;31019;43.780;25.948;2023-04-15T06:47:23;100499.47;;;13.76;100.00
45275;BME280;31019;43.780;25.948;2023-04-15T06:49:50;100503.06;;;13.58;100.00
45275;BME280;31019;43.780;25.948;2023-04-15T06:52:18;100501.94;;;13.78;100.00
45275;BME280;31019;43.780;25.948;2023-04-15T06:54:45;100506.81;;;14.04;100.00
45275;BME280;31019;43.780;25.948;2023-04-15T06:57:12;100503.34;;;13.92;100.00
45275;BME280;31019;43.780;25.948;2023-04-15T06:59:39;100505.13;;;14.27;100.00
45275;BME280;31019;43.780;25.948;2023-04-15T07:02:09;100511.19;;;14.22;100.00
45275;BME280;31019;43.780;25.948;2023-04-15T07:04:37;100502.25;;;14.28;100.00
45275;BME280;31019;43.780;25.948;2023-04-15T07:07:04;100517.19;;;14.41;100.00
45275;BME280;31019;43.780;25.948;2023-04-15T07:09:33;100513.81;;;14.46;100.00
45275;BME280;31019;43.780;25.948;2023-04-15T07:12:00;100512.53;;;14.48;100.00
45275;BME280;31019;43.780;25.948;2023-04-15T07:14:27;100510.41;;;14.74;100.00
45275;BME280;31019;43.780;25.948;2023-04-15T07:16:54;100514.25;;;14.66;100.00
45275;BME280;31019;43.780;25.948;2023-04-15T07:19:22;100526.69;;;15.01;100.00
45275;BME280;31019;43.780;25.948;2023-04-15T07:21:48;100528.91;;;14.92;100.00
45275;BME280;31019;43.780;25.948;2023-04-15T07:24:15;100536.78;;;14.99;100.00
45275;BME280;31019;43.780;25.948;2023-04-15T07:26:45;100537.03;;;14.69;100.00
45275;BME280;31019;43.780;25.948;2023-04-15T07:29:12;100541.38;;;14.86;100.00
45275;BME280;31019;43.780;25.948;2023-04-15T07:31:39;100544.13;;;15.20;100.00
45275;BME280;31019;43.780;25.948;2023-04-15T07:34:07;100549.78;;;15.07;100.00
45275;BME280;31019;43.780;25.948;2023-04-15T07:36:34;100545.81;;;15.09;100.00
45275;BME280;31019;43.780;25.948;2023-04-15T07:39:01;100556.50;;;14.81;100.00
45275;BME280;31019;43.780;25.948;2023-04-15T07:41:28;100554.22;;;14.49;100.00
45275;BME280;31019;43.780;25.948;2023-04-15T07:43:57;100552.06;;;14.86;100.00
45275;BME280;31019;43.780;25.948;2023-04-15T07:46:24;100570.63;;;14.41;100.00
45275;BME280;31019;43.780;25.948;2023-04-15T07:48:53;100567.84;;;14.36;100.00
45275;BME280;31019;43.780;25.948;2023-04-15T07:51:20;100583.88;;;14.59;100.00
45275;BME280;31019;43.780;25.948;2023-04-15T07:53:48;100573.59;;;14.80;100.00
45275;BME280;31019;43.780;25.948;2023-04-15T07:56:15;100580.56;;;15.09;100.00
45275;BME280;31019;43.780;25.948;2023-04-15T07:58:41;100585.41;;;14.96;100.00
45275;BME280;31019;43.780;25.948;2023-04-15T08:01:10;100589.88;;;14.78;100.00
45275;BME280;31019;43.780;25.948;2023-04-15T08:03:37;100607.38;;;14.98;100.00
45275;BME280;31019;43.780;25.948;2023-04-15T08:06:04;100613.97;;;15.07;100.00
45275;BME280;31019;43.780;25.948;2023-04-15T08:08:32;100605.97;;;15.07;100.00
45275;BME280;31019;43.780;25.948;2023-04-15T08:10:59;100603.28;;;14.55;100.00
45275;BME280;31019;43.780;25.948;2023-04-15T08:13:26;100606.75;;;15.07;100.00
45275;BME280;31019;43.780;25.948;2023-04-15T09:02:24;100610.00;;;15.38;100.00
45275;BME280;31019;43.780;25.948;2023-04-15T09:05:56;100617.06;;;15.16;100.00
45275;BME280;31019;43.780;25.948;2023-04-15T09:09:00;100616.78;;;15.00;100.00
45275;BME280;31019;43.780;25.948;2023-04-15T09:12:09;100609.91;;;15.78;100.00
45275;BME280;31019;43.780;25.948;2023-04-15T09:18:03;100623.66;;;16.55;100.00
45275;BME280;31019;43.780;25.948;2023-04-15T09:21:11;100623.16;;;15.68;100.00
45275;BME280;31019;43.780;25.948;2023-04-15T09:24:39;100608.97;;;17.01;100.00
45275;BME280;31019;43.780;25.948;2023-04-15T09:28:10;100628.59;;;16.80;100.00
45275;BME280;31019;43.780;25.948;2023-04-15T09:31:35;100609.31;;;16.83;100.00
45275;BME280;31019;43.780;25.948;2023-04-15T09:38:21;100604.50;;;17.61;100.00
45275;BME280;31019;43.780;25.948;2023-04-15T09:42:41;100605.47;;;18.62;100.00
45275;BME280;31019;43.780;25.948;2023-04-15T09:44:28;100598.72;;;18.12;100.00
45275;BME280;31019;43.780;25.948;2023-04-15T09:47:55;100590.00;;;17.35;100.00
45275;BME280;31019;43.780;25.948;2023-04-15T09:53:56;100588.44;;;17.39;100.00
45275;BME280;31019;43.780;25.948;2023-04-15T10:03:41;100584.22;;;19.49;100.00
45275;BME280;31019;43.780;25.948;2023-04-15T10:13:17;100587.94;;;17.74;100.00
45275;BME280;31019;43.780;25.948;2023-04-15T10:16:18;100586.66;;;17.50;100.00
45275;BME280;31019;43.780;25.948;2023-04-15T10:19:03;100592.25;;;18.60;100.00
45275;BME280;31019;43.780;25.948;2023-04-15T10:22:21;100596.94;;;18.75;100.00
45275;BME280;31019;43.780;25.948;2023-04-15T10:28:08;100585.13;;;17.05;100.00
45275;BME280;31019;43.780;25.948;2023-04-15T10:28:59;100592.03;;;19.76;100.00
45275;BME280;31019;43.780;25.948;2023-04-15T10:32:38;100589.78;;;20.44;100.00
45275;BME280;31019;43.780;25.948;2023-04-15T10:35:22;100598.75;;;20.14;100.00
45275;BME280;31019;43.780;25.948;2023-04-15T10:38:40;100594.75;;;18.19;100.00
45275;BME280;31019;43.780;25.948;2023-04-15T10:41:37;100592.16;;;16.84;100.00
45275;BME280;31019;43.780;25.948;2023-04-15T10:44:37;100586.09;;;19.43;100.00
45275;BME280;31019;43.780;25.948;2023-04-15T10:47:37;100589.31;;;19.55;100.00
45275;BME280;31019;43.780;25.948;2023-04-15T10:50:56;100573.84;;;21.86;100.00
45275;BME280;31019;43.780;25.948;2023-04-15T10:53:52;100582.84;;;19.56;100.00
45275;BME280;31019;43.780;25.948;2023-04-15T10:57:15;100566.38;;;20.24;93.02
45275;BME280;31019;43.780;25.948;2023-04-15T11:07:17;100583.28;;;22.66;87.04
45275;BME280;31019;43.780;25.948;2023-04-15T11:17:10;100567.91;;;22.13;76.06
45275;BME280;31019;43.780;25.948;2023-04-15T11:20:00;100577.53;;;22.73;63.57
45275;BME280;31019;43.780;25.948;2023-04-15T11:22:55;100582.44;;;21.59;76.70
45275;BME280;31019;43.780;25.948;2023-04-15T11:25:51;100580.63;;;21.49;81.46
45275;BME280;31019;43.780;25.948;2023-04-15T11:32:12;100578.97;;;22.65;74.38
45275;BME280;31019;43.780;25.948;2023-04-15T11:34:59;100569.97;;;21.63;72.29
45275;BME280;31019;43.780;25.948;2023-04-15T11:41:24;100572.91;;;20.88;82.00
45275;BME280;31019;43.780;25.948;2023-04-15T11:44:30;100570.72;;;20.00;91.24
45275;BME280;31019;43.780;25.948;2023-04-15T11:53:21;100560.94;;;20.99;72.87
45275;BME280;31019;43.780;25.948;2023-04-15T11:54:01;100570.50;;;19.91;93.43
45275;BME280;31019;43.780;25.948;2023-04-15T11:56:52;100560.41;;;22.05;79.18
45275;BME280;31019;43.780;25.948;2023-04-15T12:02:44;100556.50;;;22.22;60.25
45275;BME280;31019;43.780;25.948;2023-04-15T12:07:41;100560.41;;;22.05;58.79
45275;BME280;31019;43.780;25.948;2023-04-15T12:14:43;100544.06;;;17.96;100.00
45275;BME280;31019;43.780;25.948;2023-04-15T12:21:10;100526.19;;;20.28;81.20
45275;BME280;31019;43.780;25.948;2023-04-15T12:24:07;100542.00;;;18.66;75.53
45275;BME280;31019;43.780;25.948;2023-04-15T12:27:24;100533.19;;;18.81;83.51
45275;BME280;31019;43.780;25.948;2023-04-15T12:30:06;100542.41;;;19.20;86.46
45275;BME280;31019;43.780;25.948;2023-04-15T12:32:34;100530.59;;;19.78;96.64
45275;BME280;31019;43.780;25.948;2023-04-15T12:44:29;100534.34;;;19.51;94.58
45275;BME280;31019;43.780;25.948;2023-04-15T12:47:19;100531.13;;;20.00;86.71
45275;BME280;31019;43.780;25.948;2023-04-15T12:50:34;100548.91;;;19.45;78.28
45275;BME280;31019;43.780;25.948;2023-04-15T12:56:17;100546.38;;;20.41;77.87
45275;BME280;31019;43.780;25.948;2023-04-15T13:08:50;100548.44;;;21.14;90.70
45275;BME280;31019;43.780;25.948;2023-04-15T13:11:34;100552.69;;;19.59;89.56
45275;BME280;31019;43.780;25.948;2023-04-15T13:15:46;100552.69;;;19.75;87.54
45275;BME280;31019;43.780;25.948;2023-04-15T13:17:16;100546.41;;;20.30;65.87
45275;BME280;31019;43.780;25.948;2023-04-15T13:20:05;100549.44;;;19.93;69.23
45275;BME280;31019;43.780;25.948;2023-04-15T13:23:13;100541.53;;;20.97;63.36
45275;BME280;31019;43.780;25.948;2023-04-15T13:32:37;100542.84;;;20.55;63.66
45275;BME280;31019;43.780;25.948;2023-04-15T13:41:57;100549.84;;;20.46;82.52
45275;BME280;31019;43.780;25.948;2023-04-15T13:44:49;100545.78;;;20.54;79.40
45275;BME280;31019;43.780;25.948;2023-04-15T13:51:02;100560.88;;;20.60;58.44
45275;BME280;31019;43.780;25.948;2023-04-15T13:53:50;100542.66;;;20.21;60.61
45275;BME280;31019;43.780;25.948;2023-04-15T13:56:37;100551.47;;;20.57;67.07
45275;BME280;31019;43.780;25.948;2023-04-15T13:59:32;100547.38;;;20.60;66.24
45275;BME280;31019;43.780;25.948;2023-04-15T14:02:38;100557.28;;;19.59;77.76
45275;BME280;31019;43.780;25.948;2023-04-15T14:05:59;100558.88;;;19.34;89.82
45275;BME280;31019;43.780;25.948;2023-04-15T14:08:45;100553.22;;;19.41;89.99
45275;BME280;31019;43.780;25.948;2023-04-15T14:18:55;100563.16;;;19.30;73.06
45275;BME280;31019;43.780;25.948;2023-04-15T14:21:18;100560.53;;;19.71;88.93
45275;BME280;31019;43.780;25.948;2023-04-15T14:27:46;100564.00;;;19.66;72.99
45275;BME280;31019;43.780;25.948;2023-04-15T14:37:22;100561.47;;;18.88;78.23
45275;BME280;31019;43.780;25.948;2023-04-15T14:40:22;100569.03;;;19.02;76.28
45275;BME280;31019;43.780;25.948;2023-04-15T14:46:27;100567.19;;;19.07;71.79
45275;BME280;31019;43.780;25.948;2023-04-15T14:49:26;100568.53;;;19.20;78.36
45275;BME280;31019;43.780;25.948;2023-04-15T14:52:23;100574.75;;;19.15;91.06
45275;BME280;31019;43.780;25.948;2023-04-15T14:55:15;100581.25;;;19.65;88.67
45275;BME280;31019;43.780;25.948;2023-04-15T14:58:10;100585.22;;;19.07;78.23
45275;BME280;31019;43.780;25.948;2023-04-15T15:01:13;100583.94;;;18.67;81.78
45275;BME280;31019;43.780;25.948;2023-04-15T15:04:12;100590.09;;;18.57;86.20
45275;BME280;31019;43.780;25.948;2023-04-15T15:07:07;100576.56;;;18.37;91.03
45275;BME280;31019;43.780;25.948;2023-04-15T15:10:11;100589.41;;;18.29;91.98
45275;BME280;31019;43.780;25.948;2023-04-15T15:13:06;100586.56;;;18.51;90.49
45275;BME280;31019;43.780;25.948;2023-04-15T15:15:42;100576.63;;;18.47;87.71
45275;BME280;31019;43.780;25.948;2023-04-15T15:18:41;100582.84;;;18.58;85.55
45275;BME280;31019;43.780;25.948;2023-04-15T15:21:09;100583.69;;;18.68;89.27
45275;BME280;31019;43.780;25.948;2023-04-15T15:23:43;100581.00;;;18.68;91.98
45275;BME280;31019;43.780;25.948;2023-04-15T15:26:10;100583.94;;;18.62;98.02
45275;BME280;31019;43.780;25.948;2023-04-15T15:28:39;100576.41;;;18.59;96.50
45275;BME280;31019;43.780;25.948;2023-04-15T15:31:06;100588.53;;;18.61;98.77
45275;BME280;31019;43.780;25.948;2023-04-15T15:33:33;100584.75;;;18.15;90.50
45275;BME280;31019;43.780;25.948;2023-04-15T15:36:00;100580.91;;;18.43;98.74
45275;BME280;31019;43.780;25.948;2023-04-15T15:38:27;100576.06;;;18.40;98.33
45275;BME280;31019;43.780;25.948;2023-04-15T15:40:55;100583.47;;;18.22;100.00
45275;BME280;31019;43.780;25.948;2023-04-15T15:46:46;100576.44;;;18.16;92.81
45275;BME280;31019;43.780;25.948;2023-04-15T15:49:13;100567.50;;;18.05;94.08
45275;BME280;31019;43.780;25.948;2023-04-15T15:51:39;100567.34;;;17.85;93.87
45275;BME280;31019;43.780;25.948;2023-04-15T15:54:33;100564.66;;;17.80;94.93
45275;BME280;31019;43.780;25.948;2023-04-15T16:07:23;100566.28;;;17.54;100.00
45275;BME280;31019;43.780;25.948;2023-04-15T16:10:19;100570.16;;;17.36;100.00
45275;BME280;31019;43.780;25.948;2023-04-15T16:13:37;100557.84;;;17.40;100.00
45275;BME280;31019;43.780;25.948;2023-04-15T16:16:28;100558.00;;;17.28;100.00
45275;BME280;31019;43.780;25.948;2023-04-15T16:19:29;100556.34;;;17.22;100.00
45275;BME280;31019;43.780;25.948;2023-04-15T16:28:48;100560.91;;;16.94;100.00
45275;BME280;31019;43.780;25.948;2023-04-15T16:31:35;100554.28;;;16.80;100.00